Time;durP1;ratioP1;P1;durP2;ratioP2;P2;SDS_P1;SDS_P2;PMS_P1;PMS_P2;Temp;Humidity;BMP_temperature;BMP_pressure;BME280_temperature;BME280_humidity;BME280_pressure;Samples;Min_cycle;Max_cycle;Signal;HPM_P1;HPM_P2
2020/12/17 00:01:56;;;;;;;42.00;19.90;;;;;;;;;;5016540;28;20279;-79
2020/12/17 00:04:22;;;;;;;51.03;23.13;;;;;;;;;;5017899;28;20276;-79
2020/12/17 00:06:49;;;;;;;44.07;22.00;;;;;;;;;;5018450;28;20870;-80
2020/12/17 00:09:15;;;;;;;44.83;19.90;;;;;;;;;;5017448;28;20308;-80
2020/12/17 00:11:44;;;;;;;50.80;24.67;;;;;;;;;;5018999;28;20799;-79
2020/12/17 00:14:10;;;;;;;48.47;24.20;;;;;;;;;;5016864;28;20296;-79
2020/12/17 00:16:37;;;;;;;46.40;23.10;;;;;;;;;;5018081;28;20272;-78
2020/12/17 00:19:04;;;;;;;43.43;22.30;;;;;;;;;;5022315;28;20285;-79
2020/12/17 00:21:30;;;;;;;44.77;22.70;;;;;;;;;;5019686;28;20265;-79
2020/12/17 00:23:56;;;;;;;42.00;22.60;;;;;;;;;;5021492;28;20267;-79
2020/12/17 00:26:26;;;;;;;41.33;22.80;;;;;;;;;;5026655;28;20292;-77
2020/12/17 00:28:52;;;;;;;42.97;22.10;;;;;;;;;;5019776;28;20310;-79
2020/12/17 00:31:18;;;;;;;39.80;19.97;;;;;;;;;;5021750;28;20536;-79
2020/12/17 00:33:45;;;;;;;46.37;24.37;;;;;;;;;;5017180;28;20261;-79
2020/12/17 00:36:12;;;;;;;48.43;24.50;;;;;;;;;;5018650;28;20274;-79
2020/12/17 00:38:39;;;;;;;50.93;25.40;;;;;;;;;;5031381;28;20355;-79
2020/12/17 00:41:05;;;;;;;46.73;23.33;;;;;;;;;;5020102;28;20336;-81
2020/12/17 00:43:31;;;;;;;43.70;23.17;;;;;;;;;;5014617;28;20275;-78
2020/12/17 00:45:57;;;;;;;43.57;23.77;;;;;;;;;;5015689;28;20264;-79
2020/12/17 00:48:23;;;;;;;47.30;23.90;;;;;;;;;;5017415;28;20288;-79
2020/12/17 00:50:49;;;;;;;41.37;22.30;;;;;;;;;;5015722;28;20356;-79
2020/12/17 00:53:15;;;;;;;46.07;24.53;;;;;;;;;;5021634;28;20276;-79
2020/12/17 00:55:42;;;;;;;45.17;25.20;;;;;;;;;;5021394;28;20280;-79
2020/12/17 00:58:08;;;;;;;45.27;23.93;;;;;;;;;;5018381;28;20304;-79
2020/12/17 01:00:35;;;;;;;45.43;24.63;;;;;;;;;;5016983;28;20280;-79
2020/12/17 01:03:01;;;;;;;40.63;22.87;;;;;;;;;;5020134;28;20363;-79
2020/12/17 01:05:27;;;;;;;41.07;23.83;;;;;;;;;;5022721;28;20939;-79
2020/12/17 01:07:53;;;;;;;33.77;21.30;;;;;;;;;;5013471;28;20289;-79
2020/12/17 01:10:19;;;;;;;38.50;22.53;;;;;;;;;;5014123;28;20998;-78
2020/12/17 01:12:45;;;;;;;39.17;20.83;;;;;;;;;;5012873;28;20277;-78
2020/12/17 01:15:11;;;;;;;37.90;20.17;;;;;;;;;;5047580;28;20280;-78
2020/12/17 01:17:37;;;;;;;34.17;19.77;;;;;;;;;;5016781;28;20272;-79
2020/12/17 01:20:04;;;;;;;37.30;21.03;;;;;;;;;;5022631;28;20387;-79
2020/12/17 01:22:30;;;;;;;40.83;20.60;;;;;;;;;;5019525;28;20316;-79
2020/12/17 01:24:56;;;;;;;38.70;20.83;;;;;;;;;;5024017;28;20294;-79
2020/12/17 01:27:23;;;;;;;40.57;21.27;;;;;;;;;;5026697;28;20292;-79
2020/12/17 01:29:50;;;;;;;36.87;19.40;;;;;;;;;;5025427;28;20299;-79
2020/12/17 01:32:16;;;;;;;33.83;20.53;;;;;;;;;;5020614;28;20273;-79
2020/12/17 01:34:42;;;;;;;37.67;21.93;;;;;;;;;;5015583;28;20280;-79
2020/12/17 01:37:08;;;;;;;32.87;19.90;;;;;;;;;;5030937;28;20279;-78
2020/12/17 01:39:34;;;;;;;37.43;21.53;;;;;;;;;;5029077;28;20257;-78
2020/12/17 01:42:00;;;;;;;37.30;20.20;;;;;;;;;;5027110;28;20328;-79
2020/12/17 01:44:26;;;;;;;34.30;19.77;;;;;;;;;;5028138;28;20291;-80
2020/12/17 01:46:56;;;;;;;36.00;20.53;;;;;;;;;;5018418;28;20313;-79
2020/12/17 01:49:23;;;;;;;37.97;20.10;;;;;;;;;;5020990;28;20330;-80
2020/12/17 01:51:49;;;;;;;35.87;21.50;;;;;;;;;;5031872;28;20763;-79
2020/12/17 01:54:16;;;;;;;34.57;19.67;;;;;;;;;;5020554;28;20343;-77
2020/12/17 01:56:44;;;;;;;36.63;20.77;;;;;;;;;;5028761;28;20268;-79
2020/12/17 01:59:13;;;;;;;37.70;20.30;;;;;;;;;;5031428;28;20305;-78
2020/12/17 02:01:49;;;;;;;36.53;19.03;;;;;;;;;;5027538;28;20636;-79
2020/12/17 02:04:16;;;;;;;37.80;19.80;;;;;;;;;;5025724;28;20308;-80
2020/12/17 02:06:42;;;;;;;38.13;20.23;;;;;;;;;;5035491;28;20334;-79
2020/12/17 02:09:09;;;;;;;37.07;20.30;;;;;;;;;;5029782;28;20354;-79
2020/12/17 02:11:36;;;;;;;35.00;19.80;;;;;;;;;;5021160;28;20265;-78
2020/12/17 02:14:02;;;;;;;35.47;18.87;;;;;;;;;;5023422;28;20271;-78
2020/12/17 02:16:28;;;;;;;42.17;21.70;;;;;;;;;;5020919;28;20300;-79
2020/12/17 02:18:54;;;;;;;34.13;19.27;;;;;;;;;;5034698;28;20661;-79
2020/12/17 02:21:20;;;;;;;38.70;21.20;;;;;;;;;;5034403;28;20270;-79
2020/12/17 02:23:47;;;;;;;34.97;20.00;;;;;;;;;;5024649;28;20966;-79
2020/12/17 02:26:14;;;;;;;37.60;20.03;;;;;;;;;;5020246;28;20617;-78
2020/12/17 02:28:41;;;;;;;34.63;20.00;;;;;;;;;;5020204;28;20298;-79
2020/12/17 02:31:07;;;;;;;36.93;21.40;;;;;;;;;;5025608;28;20350;-79
2020/12/17 02:33:38;;;;;;;39.13;20.43;;;;;;;;;;5032558;28;20283;-79
2020/12/17 02:36:04;;;;;;;39.13;20.50;;;;;;;;;;5039831;28;21002;-79
2020/12/17 02:38:30;;;;;;;34.97;21.30;;;;;;;;;;5036690;28;20387;-79
2020/12/17 02:40:56;;;;;;;40.77;21.03;;;;;;;;;;5022327;28;20281;-79
2020/12/17 02:43:22;;;;;;;38.13;20.97;;;;;;;;;;5018182;28;20280;-79
2020/12/17 02:45:49;;;;;;;36.13;20.43;;;;;;;;;;5022061;28;20277;-79
2020/12/17 02:48:16;;;;;;;36.13;19.83;;;;;;;;;;5021614;28;20292;-79
2020/12/17 02:50:44;;;;;;;38.03;20.07;;;;;;;;;;5017692;28;20281;-79
2020/12/17 02:53:10;;;;;;;34.47;19.83;;;;;;;;;;5014521;28;20273;-79
2020/12/17 02:55:37;;;;;;;39.57;20.13;;;;;;;;;;5016200;28;20277;-79
2020/12/17 02:58:04;;;;;;;35.40;19.47;;;;;;;;;;5019473;28;20315;-79
2020/12/17 03:00:30;;;;;;;31.07;19.40;;;;;;;;;;5016905;28;20277;-79
2020/12/17 03:02:56;;;;;;;32.90;18.07;;;;;;;;;;5018221;28;20292;-78
2020/12/17 03:05:22;;;;;;;35.67;19.33;;;;;;;;;;5019193;28;20807;-79
2020/12/17 03:07:51;;;;;;;33.57;17.10;;;;;;;;;;5014955;28;20336;-79
2020/12/17 03:10:17;;;;;;;30.30;18.17;;;;;;;;;;5014490;28;20780;-78
2020/12/17 03:12:44;;;;;;;34.53;18.17;;;;;;;;;;5018908;28;20273;-78
2020/12/17 03:15:11;;;;;;;35.60;16.87;;;;;;;;;;5010780;28;20774;-79
2020/12/17 03:17:37;;;;;;;31.17;17.97;;;;;;;;;;5032430;28;20719;-78
2020/12/17 03:20:07;;;;;;;35.00;18.17;;;;;;;;;;5019608;28;20268;-79
2020/12/17 03:22:34;;;;;;;28.37;15.93;;;;;;;;;;5019520;28;20350;-78
2020/12/17 03:25:00;;;;;;;35.27;17.10;;;;;;;;;;5019445;28;20277;-79
2020/12/17 03:27:26;;;;;;;35.17;19.47;;;;;;;;;;5016992;28;20300;-78
2020/12/17 03:29:52;;;;;;;29.07;17.00;;;;;;;;;;5017184;28;20268;-79
2020/12/17 03:32:18;;;;;;;26.97;15.90;;;;;;;;;;5008182;28;20275;-79
2020/12/17 03:34:45;;;;;;;25.63;14.83;;;;;;;;;;5018060;28;20271;-78
2020/12/17 03:37:11;;;;;;;29.33;16.90;;;;;;;;;;5018918;28;20276;-79
2020/12/17 03:39:37;;;;;;;27.73;15.80;;;;;;;;;;5014779;28;20280;-78
2020/12/17 03:42:04;;;;;;;28.97;16.70;;;;;;;;;;5017034;28;20284;-79
2020/12/17 03:44:30;;;;;;;31.87;16.40;;;;;;;;;;5016654;28;20268;-79
2020/12/17 03:46:56;;;;;;;34.23;17.27;;;;;;;;;;5015228;28;20288;-79
2020/12/17 03:49:23;;;;;;;33.70;18.40;;;;;;;;;;5013456;28;20287;-78
2020/12/17 03:51:51;;;;;;;31.53;16.50;;;;;;;;;;5014588;28;20288;-79
2020/12/17 03:54:17;;;;;;;28.83;16.50;;;;;;;;;;5015145;28;20636;-79
2020/12/17 03:56:43;;;;;;;32.13;17.90;;;;;;;;;;5012697;28;20270;-79
2020/12/17 03:59:09;;;;;;;34.30;17.90;;;;;;;;;;5020294;28;20433;-79
2020/12/17 04:01:35;;;;;;;30.30;16.70;;;;;;;;;;5023736;28;20261;-79
2020/12/17 04:04:01;;;;;;;31.17;17.43;;;;;;;;;;5016342;28;20412;-79
2020/12/17 04:06:27;;;;;;;32.33;16.87;;;;;;;;;;5024581;28;20261;-79
2020/12/17 04:08:53;;;;;;;30.73;16.67;;;;;;;;;;5012941;28;20351;-79
2020/12/17 04:11:19;;;;;;;28.57;16.10;;;;;;;;;;5012174;28;20667;-79
2020/12/17 04:13:45;;;;;;;26.50;16.63;;;;;;;;;;5011022;28;20327;-79
2020/12/17 04:16:12;;;;;;;40.03;23.87;;;;;;;;;;5012045;28;20697;-78
2020/12/17 04:18:38;;;;;;;27.03;16.93;;;;;;;;;;5012448;28;20327;-79
2020/12/17 04:21:04;;;;;;;33.03;18.73;;;;;;;;;;5012026;28;20296;-78
2020/12/17 04:23:30;;;;;;;29.73;18.33;;;;;;;;;;5006673;28;20319;-79
2020/12/17 04:25:59;;;;;;;26.93;16.40;;;;;;;;;;5010936;28;20640;-78
2020/12/17 04:28:25;;;;;;;32.40;17.40;;;;;;;;;;5012015;28;20909;-79
2020/12/17 04:30:51;;;;;;;39.87;23.03;;;;;;;;;;5011372;28;20423;-79
2020/12/17 04:33:17;;;;;;;34.57;19.77;;;;;;;;;;4995663;28;20285;-79
2020/12/17 04:35:43;;;;;;;31.97;18.33;;;;;;;;;;5010213;28;20273;-79
2020/12/17 04:38:09;;;;;;;27.27;16.77;;;;;;;;;;5010913;28;20348;-79
2020/12/17 04:40:36;;;;;;;33.77;18.93;;;;;;;;;;5008050;28;20265;-79
2020/12/17 04:43:02;;;;;;;26.50;16.63;;;;;;;;;;4999796;28;20337;-79
2020/12/17 04:45:29;;;;;;;24.13;15.33;;;;;;;;;;5011949;28;20584;-79
2020/12/17 04:47:55;;;;;;;27.90;17.23;;;;;;;;;;5011729;28;20281;-79
2020/12/17 04:50:22;;;;;;;26.70;16.40;;;;;;;;;;5007945;28;20281;-78
2020/12/17 04:52:52;;;;;;;25.73;15.40;;;;;;;;;;5008569;28;20368;-78
2020/12/17 04:55:18;;;;;;;24.90;15.03;;;;;;;;;;5003144;28;20281;-79
2020/12/17 04:57:45;;;;;;;25.43;15.43;;;;;;;;;;4997033;28;20327;-78
2020/12/17 05:00:15;;;;;;;23.20;15.23;;;;;;;;;;5012036;28;20273;-79
2020/12/17 05:02:48;;;;;;;25.10;14.17;;;;;;;;;;5014663;28;20277;-79
2020/12/17 05:05:14;;;;;;;24.95;15.38;;;;;;;;;;5013467;28;20269;-79
2020/12/17 05:07:41;;;;;;;23.37;14.20;;;;;;;;;;5012069;28;20038;-79
2020/12/17 05:10:08;;;;;;;20.70;12.80;;;;;;;;;;5012585;28;20447;-79
2020/12/17 05:12:34;;;;;;;20.43;12.57;;;;;;;;;;4996499;28;20253;-79
2020/12/17 05:15:00;;;;;;;21.30;12.93;;;;;;;;;;4993372;28;20304;-79
2020/12/17 05:17:26;;;;;;;22.03;14.37;;;;;;;;;;5011080;28;20351;-79
2020/12/17 05:19:52;;;;;;;21.37;14.97;;;;;;;;;;5012896;28;20311;-79
2020/12/17 05:22:19;;;;;;;20.63;13.10;;;;;;;;;;5012116;28;20279;-78
2020/12/17 05:24:46;;;;;;;20.07;13.57;;;;;;;;;;5004039;28;20330;-78
2020/12/17 05:27:13;;;;;;;18.00;11.83;;;;;;;;;;5017388;28;20909;-78
2020/12/17 05:29:39;;;;;;;21.77;13.13;;;;;;;;;;5031863;28;20256;-78
2020/12/17 05:32:06;;;;;;;19.57;11.07;;;;;;;;;;5017165;28;20283;-78
2020/12/17 05:34:34;;;;;;;19.87;11.40;;;;;;;;;;5016577;28;20661;-79
2020/12/17 05:37:00;;;;;;;15.33;10.53;;;;;;;;;;5028558;28;20264;-79
2020/12/17 05:39:28;;;;;;;17.13;10.73;;;;;;;;;;5015198;28;20330;-79
2020/12/17 05:41:55;;;;;;;16.60;11.17;;;;;;;;;;5008265;28;20647;-78
2020/12/17 05:44:25;;;;;;;15.97;11.33;;;;;;;;;;5024402;28;20273;-78
2020/12/17 05:46:51;;;;;;;16.13;11.17;;;;;;;;;;5014833;28;20268;-79
2020/12/17 05:49:22;;;;;;;15.67;11.13;;;;;;;;;;5019472;28;20299;-79
2020/12/17 05:51:49;;;;;;;16.60;9.80;;;;;;;;;;5016642;28;20265;-78
2020/12/17 05:54:27;;;;;;;16.70;10.80;;;;;;;;;;5028110;28;20267;-79
2020/12/17 05:57:07;;;;;;;25.33;16.07;;;;;;;;;;5015385;28;20265;-79
2020/12/17 05:59:34;;;;;;;16.93;11.40;;;;;;;;;;5009301;28;20269;-77
2020/12/17 06:02:20;;;;;;;14.83;9.00;;;;;;;;;;5010061;28;20772;-81
2020/12/17 06:04:47;;;;;;;19.03;10.27;;;;;;;;;;5021744;28;20256;-79
2020/12/17 06:07:15;;;;;;;13.97;9.80;;;;;;;;;;5005048;28;20285;-81
2020/12/17 06:09:47;;;;;;;12.50;8.07;;;;;;;;;;5010005;28;20269;-81
2020/12/17 06:12:18;;;;;;;17.03;10.90;;;;;;;;;;5005916;28;20281;-80
2020/12/17 06:14:47;;;;;;;15.63;10.27;;;;;;;;;;5019687;28;20260;-80
2020/12/17 06:17:15;;;;;;;16.17;10.37;;;;;;;;;;5021271;28;20284;-80
2020/12/17 06:19:42;;;;;;;16.50;11.20;;;;;;;;;;5010365;28;20712;-81
2020/12/17 06:22:10;;;;;;;17.47;11.27;;;;;;;;;;5013382;28;20280;-80
2020/12/17 06:24:37;;;;;;;15.60;10.67;;;;;;;;;;5011169;28;20264;-79
2020/12/17 06:27:09;;;;;;;16.53;10.70;;;;;;;;;;5005463;28;20288;-80
2020/12/17 06:29:40;;;;;;;16.80;10.40;;;;;;;;;;5014937;28;20271;-80
2020/12/17 06:32:15;;;;;;;17.47;11.13;;;;;;;;;;5020183;28;20283;-81
2020/12/17 06:34:42;;;;;;;17.13;11.63;;;;;;;;;;5020653;28;20789;-79
2020/12/17 06:37:11;;;;;;;17.53;12.07;;;;;;;;;;5019040;28;20288;-79
2020/12/17 06:39:37;;;;;;;16.77;11.00;;;;;;;;;;5015965;28;20283;-81
2020/12/17 06:42:03;;;;;;;18.03;11.13;;;;;;;;;;5011204;28;20380;-81
2020/12/17 06:44:34;;;;;;;18.07;11.97;;;;;;;;;;5012599;28;20276;-79
2020/12/17 06:47:01;;;;;;;18.90;13.17;;;;;;;;;;5015258;28;20292;-78
2020/12/17 06:49:28;;;;;;;18.43;12.77;;;;;;;;;;5010618;28;20289;-79
2020/12/17 06:52:07;;;;;;;17.00;12.17;;;;;;;;;;5016372;28;20297;-78
2020/12/17 06:54:37;;;;;;;19.67;12.93;;;;;;;;;;5010783;28;20269;-81
2020/12/17 06:57:04;;;;;;;19.60;12.60;;;;;;;;;;4994583;28;20273;-80
2020/12/17 06:59:30;;;;;;;21.77;13.47;;;;;;;;;;5008006;28;20658;-79
2020/12/17 07:01:56;;;;;;;19.70;12.57;;;;;;;;;;5014986;28;20284;-79
2020/12/17 07:04:42;;;;;;;18.53;12.33;;;;;;;;;;5015746;28;20277;-80
2020/12/17 07:07:19;;;;;;;19.50;11.93;;;;;;;;;;5012429;28;20288;-80
2020/12/17 07:09:47;;;;;;;18.50;12.07;;;;;;;;;;5011926;28;20272;-80
2020/12/17 07:12:33;;;;;;;21.87;13.47;;;;;;;;;;5015194;28;20628;-80
2020/12/17 07:14:59;;;;;;;18.50;12.37;;;;;;;;;;5011992;28;20264;-78
2020/12/17 07:17:26;;;;;;;20.17;12.97;;;;;;;;;;5012232;28;20268;-80
2020/12/17 07:19:52;;;;;;;19.90;13.50;;;;;;;;;;5008711;28;20273;-80
2020/12/17 07:22:19;;;;;;;19.90;13.43;;;;;;;;;;5006034;28;20387;-80
2020/12/17 07:24:46;;;;;;;19.60;12.50;;;;;;;;;;5013552;28;20292;-80
2020/12/17 07:27:15;;;;;;;22.00;14.10;;;;;;;;;;5011521;28;20297;-80
2020/12/17 07:29:43;;;;;;;21.43;13.43;;;;;;;;;;5013964;28;20285;-80
2020/12/17 07:32:21;;;;;;;19.30;12.80;;;;;;;;;;5014128;28;20767;-78
2020/12/17 07:34:47;;;;;;;19.20;13.00;;;;;;;;;;5015542;28;20277;-79
2020/12/17 07:37:34;;;;;;;22.87;13.80;;;;;;;;;;5006348;28;20339;-79
2020/12/17 07:40:02;;;;;;;25.30;13.43;;;;;;;;;;5014112;28;20323;-79
2020/12/17 07:42:28;;;;;;;34.60;15.97;;;;;;;;;;5013406;28;20276;-78
2020/12/17 07:44:54;;;;;;;32.83;17.07;;;;;;;;;;5013098;28;20352;-79
2020/12/17 07:47:21;;;;;;;18.67;12.47;;;;;;;;;;5013416;28;20297;-77
2020/12/17 07:49:47;;;;;;;21.13;13.60;;;;;;;;;;5013535;28;20273;-77
2020/12/17 07:52:29;;;;;;;16.27;10.50;;;;;;;;;;5012954;28;20344;-77
2020/12/17 07:54:55;;;;;;;19.20;12.13;;;;;;;;;;5011536;28;20269;-78
2020/12/17 07:57:22;;;;;;;16.17;11.23;;;;;;;;;;5013292;28;20280;-79
2020/12/17 07:59:48;;;;;;;16.17;11.03;;;;;;;;;;5015297;28;20339;-79
2020/12/17 08:02:14;;;;;;;18.73;10.03;;;;;;;;;;5016315;28;20285;-78
2020/12/17 08:04:48;;;;;;;19.73;11.50;;;;;;;;;;5014521;28;20380;-78
2020/12/17 08:07:15;;;;;;;18.63;12.07;;;;;;;;;;5008253;28;20289;-78
2020/12/17 08:09:41;;;;;;;18.70;12.20;;;;;;;;;;5010391;28;21171;-78
2020/12/17 08:12:11;;;;;;;15.60;10.67;;;;;;;;;;5012370;28;20344;-78
2020/12/17 08:14:38;;;;;;;15.50;10.53;;;;;;;;;;5044588;28;20790;-78
2020/12/17 08:17:08;;;;;;;15.53;9.57;;;;;;;;;;5014152;28;20300;-80
2020/12/17 08:19:35;;;;;;;14.00;10.00;;;;;;;;;;5011984;28;20272;-80
2020/12/17 08:22:03;;;;;;;15.87;10.87;;;;;;;;;;5012351;28;20355;-80
2020/12/17 08:24:32;;;;;;;16.33;10.77;;;;;;;;;;5011318;28;20304;-79
2020/12/17 08:26:59;;;;;;;19.00;10.43;;;;;;;;;;5004454;28;20265;-77
2020/12/17 08:29:25;;;;;;;20.50;12.33;;;;;;;;;;5012890;28;20300;-78
2020/12/17 08:31:52;;;;;;;15.70;10.33;;;;;;;;;;5010605;28;20281;-77
2020/12/17 08:34:18;;;;;;;13.60;9.23;;;;;;;;;;5005319;28;20280;-77
2020/12/17 08:36:49;;;;;;;13.80;9.77;;;;;;;;;;5008460;28;20691;-78
2020/12/17 08:39:18;;;;;;;12.77;8.00;;;;;;;;;;5009317;28;20273;-81
2020/12/17 08:41:56;;;;;;;16.63;9.37;;;;;;;;;;5009704;28;20269;-81
2020/12/17 08:44:29;;;;;;;12.37;7.93;;;;;;;;;;5008219;28;20831;-81
2020/12/17 08:47:00;;;;;;;12.82;7.78;;;;;;;;;;5007508;28;20030;-80
2020/12/17 08:49:28;;;;;;;10.23;7.50;;;;;;;;;;5004068;28;20231;-81
2020/12/17 08:51:54;;;;;;;12.97;7.37;;;;;;;;;;4992759;28;20024;-81
2020/12/17 08:54:31;;;;;;;10.97;7.10;;;;;;;;;;5008444;28;20022;-81
2020/12/17 08:56:58;;;;;;;13.57;9.20;;;;;;;;;;4998371;28;20025;-82
2020/12/17 08:59:25;;;;;;;11.63;7.63;;;;;;;;;;5008585;28;20040;-80
2020/12/17 09:01:51;;;;;;;16.70;9.03;;;;;;;;;;5008726;28;20117;-82
2020/12/17 09:04:17;;;;;;;10.20;6.97;;;;;;;;;;5010067;28;20022;-81
2020/12/17 09:06:50;;;;;;;11.33;7.07;;;;;;;;;;5008249;28;20029;-80
2020/12/17 09:09:18;;;;;;;10.30;6.43;;;;;;;;;;5013872;28;20032;-81
2020/12/17 09:11:46;;;;;;;13.03;7.57;;;;;;;;;;5006733;28;20030;-81
2020/12/17 09:14:19;;;;;;;9.43;5.63;;;;;;;;;;5008335;28;20022;-81
2020/12/17 09:16:46;;;;;;;11.63;6.50;;;;;;;;;;5006544;28;20059;-82
2020/12/17 09:19:13;;;;;;;10.30;6.80;;;;;;;;;;5007122;28;20033;-78
2020/12/17 09:21:57;;;;;;;10.43;6.07;;;;;;;;;;5008915;28;20034;-78
2020/12/17 09:24:34;;;;;;;10.03;5.57;;;;;;;;;;5006054;28;20062;-80
2020/12/17 09:27:19;;;;;;;7.67;5.10;;;;;;;;;;5007295;28;20040;-77
2020/12/17 09:30:03;;;;;;;8.23;5.53;;;;;;;;;;5006044;28;20029;-77
2020/12/17 09:32:29;;;;;;;10.57;5.20;;;;;;;;;;4997626;28;20647;-80
2020/12/17 09:35:02;;;;;;;8.87;5.53;;;;;;;;;;5006620;28;20044;-79
2020/12/17 09:37:29;;;;;;;9.98;5.60;;;;;;;;;;5006821;28;20022;-79
2020/12/17 09:39:55;;;;;;;10.38;5.10;;;;;;;;;;5007425;28;20041;-81
2020/12/17 09:42:22;;;;;;;7.45;4.97;;;;;;;;;;5008272;28;20044;-79
2020/12/17 09:44:48;;;;;;;6.70;4.55;;;;;;;;;;5008172;28;20038;-79
2020/12/17 09:47:14;;;;;;;7.70;4.85;;;;;;;;;;5004352;28;20565;-82
2020/12/17 09:49:40;;;;;;;7.90;4.95;;;;;;;;;;5021718;28;20030;-79
2020/12/17 09:52:10;;;;;;;6.82;4.60;;;;;;;;;;5020413;28;20189;-78
2020/12/17 09:54:41;;;;;;;5.97;4.05;;;;;;;;;;5033766;28;20022;-79
2020/12/17 09:57:09;;;;;;;7.72;4.57;;;;;;;;;;5006903;28;20026;-80
2020/12/17 09:59:35;;;;;;;6.75;4.63;;;;;;;;;;5041177;28;20032;-79
2020/12/17 10:02:05;;;;;;;6.45;4.57;;;;;;;;;;5041314;28;20509;-80
2020/12/17 10:04:31;;;;;;;7.95;4.53;;;;;;;;;;5053987;28;20142;-80
2020/12/17 10:06:59;;;;;;;6.50;4.30;;;;;;;;;;5015187;28;20030;-81
2020/12/17 10:09:26;;;;;;;8.93;4.43;;;;;;;;;;5008724;28;20057;-81
2020/12/17 10:11:55;;;;;;;5.85;4.07;;;;;;;;;;5011002;28;20098;-82
2020/12/17 10:14:22;;;;;;;5.60;4.00;;;;;;;;;;5026476;28;20116;-79
2020/12/17 10:16:49;;;;;;;6.78;4.47;;;;;;;;;;5011812;28;20049;-80
2020/12/17 10:19:16;;;;;;;7.05;3.80;;;;;;;;;;5015204;28;20022;-79
2020/12/17 10:21:43;;;;;;;6.80;4.80;;;;;;;;;;5043000;28;20033;-79
2020/12/17 10:24:09;;;;;;;6.30;3.85;;;;;;;;;;5019191;28;20063;-81
2020/12/17 10:26:35;;;;;;;5.70;4.00;;;;;;;;;;5016384;28;20117;-79
2020/12/17 10:29:01;;;;;;;6.38;4.85;;;;;;;;;;5024915;28;20460;-79
2020/12/17 10:31:28;;;;;;;5.78;3.97;;;;;;;;;;5014930;28;20038;-80
2020/12/17 10:33:54;;;;;;;4.68;3.63;;;;;;;;;;5000608;28;20701;-79
2020/12/17 10:36:20;;;;;;;7.20;4.63;;;;;;;;;;5006065;28;20120;-79
2020/12/17 10:38:48;;;;;;;5.70;4.30;;;;;;;;;;5013790;28;20490;-78
2020/12/17 10:41:14;;;;;;;6.22;4.00;;;;;;;;;;5049032;28;20030;-77
2020/12/17 10:43:40;;;;;;;7.68;5.00;;;;;;;;;;5007945;28;20026;-78
2020/12/17 10:46:06;;;;;;;8.23;4.80;;;;;;;;;;5007856;28;20026;-76
2020/12/17 10:48:32;;;;;;;7.47;5.20;;;;;;;;;;5007961;28;20030;-77
2020/12/17 10:50:58;;;;;;;10.18;5.72;;;;;;;;;;5001963;28;20049;-77
2020/12/17 10:53:24;;;;;;;7.13;4.80;;;;;;;;;;5007837;28;20037;-78
2020/12/17 10:55:51;;;;;;;7.00;4.55;;;;;;;;;;5000330;28;20050;-77
2020/12/17 10:58:17;;;;;;;6.65;4.85;;;;;;;;;;5006817;28;20033;-77
2020/12/17 11:00:43;;;;;;;8.60;4.95;;;;;;;;;;5013895;28;20101;-78
2020/12/17 11:03:09;;;;;;;7.55;5.22;;;;;;;;;;5017678;28;20580;-77
2020/12/17 11:05:36;;;;;;;5.88;4.28;;;;;;;;;;5014158;28;20037;-78
2020/12/17 11:08:03;;;;;;;6.90;4.50;;;;;;;;;;4991654;28;20401;-77
2020/12/17 11:10:29;;;;;;;8.52;4.70;;;;;;;;;;5006691;28;20037;-78
2020/12/17 11:12:55;;;;;;;6.20;4.32;;;;;;;;;;5001984;28;20026;-77
2020/12/17 11:15:21;;;;;;;5.85;4.20;;;;;;;;;;5003062;28;20026;-78
2020/12/17 11:17:47;;;;;;;6.20;4.18;;;;;;;;;;5010515;28;20030;-77
2020/12/17 11:20:16;;;;;;;10.48;5.00;;;;;;;;;;5008001;28;20604;-78
2020/12/17 11:22:42;;;;;;;9.95;5.50;;;;;;;;;;5011857;28;20021;-78
2020/12/17 11:25:08;;;;;;;6.05;4.68;;;;;;;;;;5004917;28;20920;-78
2020/12/17 11:27:34;;;;;;;6.50;4.75;;;;;;;;;;5004228;28;20087;-78
2020/12/17 11:30:00;;;;;;;6.00;4.45;;;;;;;;;;5028901;28;20032;-78
2020/12/17 11:32:26;;;;;;;7.35;5.22;;;;;;;;;;5008985;28;20033;-77
2020/12/17 11:34:52;;;;;;;8.82;5.80;;;;;;;;;;5014456;28;20097;-76
2020/12/17 11:37:19;;;;;;;7.95;5.75;;;;;;;;;;5027424;28;20037;-78
2020/12/17 11:39:45;;;;;;;8.57;5.13;;;;;;;;;;5012398;28;20033;-77
2020/12/17 11:42:11;;;;;;;8.70;5.82;;;;;;;;;;5021448;28;20034;-80
2020/12/17 11:44:38;;;;;;;7.80;5.72;;;;;;;;;;5011300;28;20034;-79
2020/12/17 11:47:04;;;;;;;8.45;6.00;;;;;;;;;;5009377;28;20042;-80
2020/12/17 11:49:30;;;;;;;9.50;6.43;;;;;;;;;;5011072;28;20040;-81
2020/12/17 11:51:56;;;;;;;8.57;5.70;;;;;;;;;;5009699;28;20018;-79
2020/12/17 11:54:22;;;;;;;8.80;6.28;;;;;;;;;;5010800;28;20649;-81
2020/12/17 11:56:51;;;;;;;8.40;5.65;;;;;;;;;;5007374;28;20017;-80
2020/12/17 11:59:18;;;;;;;9.90;5.63;;;;;;;;;;5017767;28;20022;-78
2020/12/17 12:01:45;;;;;;;15.57;9.45;;;;;;;;;;5023678;28;20018;-80
2020/12/17 12:04:11;;;;;;;27.63;19.85;;;;;;;;;;5016708;28;20606;-80
2020/12/17 12:06:37;;;;;;;8.10;6.10;;;;;;;;;;5027866;28;20065;-79
2020/12/17 12:09:06;;;;;;;9.05;5.53;;;;;;;;;;5016167;28;20026;-79
2020/12/17 12:11:32;;;;;;;7.90;4.10;;;;;;;;;;5009425;28;20025;-78
2020/12/17 12:13:59;;;;;;;6.88;3.85;;;;;;;;;;5009472;28;20014;-78
2020/12/17 12:16:25;;;;;;;5.82;3.65;;;;;;;;;;5010504;28;20022;-81
2020/12/17 12:18:51;;;;;;;6.18;4.00;;;;;;;;;;5010487;28;20038;-78
2020/12/17 12:21:17;;;;;;;6.30;3.88;;;;;;;;;;5008941;28;20021;-79
2020/12/17 12:23:47;;;;;;;5.78;3.83;;;;;;;;;;5012359;28;20033;-79
2020/12/17 12:26:13;;;;;;;6.75;4.30;;;;;;;;;;5010038;28;20033;-79
2020/12/17 12:28:41;;;;;;;8.73;4.45;;;;;;;;;;5011458;28;20030;-80
2020/12/17 12:31:12;;;;;;;7.25;4.45;;;;;;;;;;5020595;28;20029;-82
2020/12/17 12:33:38;;;;;;;7.18;4.07;;;;;;;;;;5012024;28;20091;-79
2020/12/17 12:36:06;;;;;;;7.20;4.35;;;;;;;;;;5013996;28;20030;-79
2020/12/17 12:38:32;;;;;;;9.07;4.27;;;;;;;;;;5013321;28;20025;-80
2020/12/17 12:40:58;;;;;;;7.03;3.63;;;;;;;;;;5008455;28;20037;-79
2020/12/17 12:43:24;;;;;;;9.50;4.30;;;;;;;;;;5036266;28;20041;-79
2020/12/17 12:45:53;;;;;;;6.53;3.97;;;;;;;;;;5014784;28;20060;-79
2020/12/17 12:48:20;;;;;;;9.60;5.00;;;;;;;;;;5016212;28;20052;-80
2020/12/17 12:50:50;;;;;;;9.27;5.33;;;;;;;;;;5046597;28;20032;-79
2020/12/17 12:53:17;;;;;;;18.57;11.80;;;;;;;;;;5017221;28;20029;-80
2020/12/17 12:55:47;;;;;;;7.60;4.10;;;;;;;;;;5021087;28;20458;-81
2020/12/17 12:58:13;;;;;;;7.80;5.23;;;;;;;;;;5019076;28;20029;-80
2020/12/17 13:00:39;;;;;;;12.57;7.37;;;;;;;;;;5019474;28;20041;-82
2020/12/17 13:03:05;;;;;;;7.27;4.80;;;;;;;;;;5022728;28;20025;-80
2020/12/17 13:05:36;;;;;;;8.77;5.63;;;;;;;;;;5013066;28;20049;-78
2020/12/17 13:08:02;;;;;;;8.37;5.60;;;;;;;;;;5008789;28;20041;-79
2020/12/17 13:10:30;;;;;;;8.30;5.17;;;;;;;;;;5008518;28;20559;-78
2020/12/17 13:12:56;;;;;;;8.00;3.90;;;;;;;;;;5005336;28;20097;-78
2020/12/17 13:15:22;;;;;;;7.10;3.80;;;;;;;;;;5027563;28;20026;-79
2020/12/17 13:17:48;;;;;;;6.33;3.07;;;;;;;;;;5008830;28;20100;-78
2020/12/17 13:20:16;;;;;;;4.80;2.73;;;;;;;;;;5009763;28;20033;-79
2020/12/17 13:22:42;;;;;;;5.50;3.33;;;;;;;;;;5009242;28;20101;-78
2020/12/17 13:25:08;;;;;;;5.03;2.70;;;;;;;;;;5013057;28;20041;-78
2020/12/17 13:27:34;;;;;;;6.40;2.47;;;;;;;;;;5007509;28;20030;-79
2020/12/17 13:30:00;;;;;;;5.17;2.93;;;;;;;;;;5009062;28;20022;-79
2020/12/17 13:32:29;;;;;;;9.50;3.50;;;;;;;;;;5009315;28;20100;-77
2020/12/17 13:34:56;;;;;;;9.87;3.43;;;;;;;;;;5007776;28;20030;-79
2020/12/17 13:37:23;;;;;;;4.63;2.40;;;;;;;;;;5007019;28;20717;-78
2020/12/17 13:39:49;;;;;;;7.53;3.30;;;;;;;;;;5008405;28;20033;-78
2020/12/17 13:42:16;;;;;;;7.07;3.13;;;;;;;;;;5009714;28;20037;-78
2020/12/17 13:44:42;;;;;;;6.87;3.43;;;;;;;;;;5022439;28;20121;-78
2020/12/17 13:47:08;;;;;;;7.00;3.20;;;;;;;;;;5007023;28;20117;-77
2020/12/17 13:49:34;;;;;;;5.17;2.97;;;;;;;;;;4996868;28;20034;-78
2020/12/17 13:52:00;;;;;;;6.20;2.57;;;;;;;;;;5022314;28;20053;-79
2020/12/17 13:54:26;;;;;;;8.87;3.97;;;;;;;;;;5019754;28;20049;-78
2020/12/17 13:56:52;;;;;;;7.00;3.00;;;;;;;;;;5007218;28;20026;-79
2020/12/17 13:59:18;;;;;;;7.37;3.17;;;;;;;;;;5012708;28;20029;-79
2020/12/17 14:01:45;;;;;;;6.33;3.10;;;;;;;;;;5020671;28;20056;-78
2020/12/17 14:04:11;;;;;;;8.43;3.87;;;;;;;;;;5012945;28;20037;-78
2020/12/17 14:06:37;;;;;;;9.97;3.90;;;;;;;;;;4991383;28;20034;-79
2020/12/17 14:09:04;;;;;;;6.00;2.87;;;;;;;;;;5009352;28;20045;-79
2020/12/17 14:11:31;;;;;;;5.73;3.03;;;;;;;;;;5008443;28;20033;-80
2020/12/17 14:13:57;;;;;;;5.30;3.13;;;;;;;;;;5010203;28;20054;-79
2020/12/17 14:16:23;;;;;;;6.17;3.60;;;;;;;;;;5009245;28;20034;-78
2020/12/17 14:18:50;;;;;;;8.83;3.63;;;;;;;;;;4995539;28;20125;-79
2020/12/17 14:21:22;;;;;;;8.80;4.20;;;;;;;;;;5007784;28;20033;-79
2020/12/17 14:23:48;;;;;;;7.13;3.80;;;;;;;;;;5007194;28;20111;-79
2020/12/17 14:26:20;;;;;;;5.90;2.90;;;;;;;;;;5019115;28;20053;-79
2020/12/17 14:28:47;;;;;;;8.17;3.40;;;;;;;;;;5006903;28;20030;-78